Time;durP1;ratioP1;P1;durP2;ratioP2;P2;SDS_P1;SDS_P2;PMS_P1;PMS_P2;Temp;Humidity;BMP_temperature;BMP_pressure;BME280_temperature;BME280_humidity;BME280_pressure;Samples;Min_cycle;Max_cycle;Signal;HPM_P1;HPM_P2
2020/12/16 00:02:19;;;;;;;35.50;16.40;;;6.50;99.90;;;;;;4992863;28;20739;-81
2020/12/16 00:04:46;;;;;;;36.77;15.07;;;6.50;99.90;;;;;;4993018;28;20696;-75
2020/12/16 00:07:13;;;;;;;39.13;14.03;;;6.60;99.90;;;;;;4993067;28;20237;-80
2020/12/16 00:09:39;;;;;;;37.30;17.27;;;6.60;99.90;;;;;;4993119;28;20593;-80
2020/12/16 00:12:06;;;;;;;56.80;16.43;;;6.60;99.90;;;;;;4992653;28;20696;-72
2020/12/16 00:14:32;;;;;;;66.50;22.37;;;6.60;99.90;;;;;;4993071;28;20676;-80
2020/12/16 00:16:59;;;;;;;57.27;17.37;;;6.60;99.90;;;;;;4992456;28;20248;-78
2020/12/16 00:19:25;;;;;;;62.53;21.07;;;6.70;99.90;;;;;;4992936;28;20212;-72
2020/12/16 00:21:52;;;;;;;62.50;21.03;;;6.70;99.90;;;;;;4992910;28;20236;-71
2020/12/16 00:24:19;;;;;;;43.57;18.20;;;6.70;99.90;;;;;;4992657;28;20237;-72
2020/12/16 00:26:46;;;;;;;72.93;22.47;;;6.70;99.90;;;;;;4993023;28;20240;-74
2020/12/16 00:29:12;;;;;;;49.57;16.30;;;6.70;99.90;;;;;;4992399;28;20639;-72
2020/12/16 00:31:39;;;;;;;58.40;18.00;;;6.90;99.90;;;;;;4992453;28;20240;-73
2020/12/16 00:34:06;;;;;;;49.13;16.63;;;6.80;99.90;;;;;;4992270;28;20248;-74
2020/12/16 00:36:36;;;;;;;53.93;20.60;;;7.00;99.90;;;;;;4992903;28;20316;-76
2020/12/16 00:39:04;;;;;;;42.37;14.47;;;6.70;99.90;;;;;;4992892;28;20240;-78
2020/12/16 00:41:32;;;;;;;63.63;17.20;;;6.90;99.90;;;;;;4991779;28;20209;-76
2020/12/16 00:43:59;;;;;;;59.43;18.37;;;6.80;99.90;;;;;;4992178;28;20239;-73
2020/12/16 00:46:25;;;;;;;78.00;20.97;;;6.80;99.90;;;;;;4991811;28;20209;-73
2020/12/16 00:48:51;;;;;;;48.13;19.07;;;6.70;99.90;;;;;;4992929;28;20267;-74
2020/12/16 00:51:18;;;;;;;59.80;20.43;;;6.60;99.90;;;;;;4992450;28;20208;-81
2020/12/16 00:53:45;;;;;;;71.30;20.60;;;6.60;99.90;;;;;;4992354;28;20657;-73
2020/12/16 00:56:11;;;;;;;66.23;15.97;;;6.60;99.90;;;;;;4992027;28;20244;-81
2020/12/16 00:58:39;;;;;;;77.93;22.87;;;6.60;99.90;;;;;;4992221;28;20279;-75
2020/12/16 01:01:05;;;;;;;70.93;18.93;;;6.80;99.90;;;;;;4991579;28;20256;-76
2020/12/16 01:03:32;;;;;;;94.00;21.97;;;6.50;99.90;;;;;;4991959;28;20244;-81
2020/12/16 01:05:58;;;;;;;82.87;20.23;;;6.40;99.90;;;;;;4991857;28;20248;-81
2020/12/16 01:08:25;;;;;;;50.37;15.57;;;6.40;99.90;;;;;;4992197;28;20248;-76
2020/12/16 01:10:52;;;;;;;48.67;16.47;;;6.40;99.90;;;;;;4992336;28;20209;-75
2020/12/16 01:13:18;;;;;;;51.27;17.97;;;6.30;99.90;;;;;;4992057;28;20205;-76
2020/12/16 01:15:46;;;;;;;47.80;14.33;;;6.30;99.90;;;;;;4991715;28;20216;-75
2020/12/16 01:18:12;;;;;;;59.77;16.63;;;6.40;99.90;;;;;;4991579;28;20216;-76
2020/12/16 01:20:39;;;;;;;49.97;15.43;;;6.30;99.90;;;;;;4991906;28;20247;-80
2020/12/16 01:23:05;;;;;;;27.83;14.23;;;6.40;99.90;;;;;;4991398;28;20640;-77
2020/12/16 01:25:32;;;;;;;63.73;16.60;;;6.30;99.90;;;;;;4991582;28;20591;-75
2020/12/16 01:27:59;;;;;;;49.27;13.17;;;6.40;99.90;;;;;;4991231;28;20217;-80
2020/12/16 01:30:27;;;;;;;105.17;15.53;;;6.50;99.90;;;;;;4991906;28;20270;-79
2020/12/16 01:32:56;;;;;;;44.00;12.93;;;6.30;99.90;;;;;;4991693;28;20232;-73
2020/12/16 01:35:23;;;;;;;67.47;17.07;;;6.30;99.90;;;;;;4991893;28;20209;-75
2020/12/16 01:37:50;;;;;;;43.20;15.07;;;6.20;99.90;;;;;;4991895;28;20244;-79
2020/12/16 01:40:16;;;;;;;46.67;13.70;;;6.20;99.90;;;;;;4991266;28;20569;-74
2020/12/16 01:42:43;;;;;;;37.60;13.30;;;6.20;99.90;;;;;;4991251;28;20224;-80
2020/12/16 01:45:11;;;;;;;43.37;12.87;;;6.20;99.90;;;;;;4991333;28;20212;-73
2020/12/16 01:47:38;;;;;;;33.03;11.63;;;6.20;99.90;;;;;;4991521;28;20261;-78
2020/12/16 01:50:07;;;;;;;54.37;14.03;;;6.20;99.90;;;;;;4990982;28;20701;-81
2020/12/16 01:52:36;;;;;;;50.27;11.37;;;6.20;99.90;;;;;;4991645;28;20653;-79
2020/12/16 01:55:04;;;;;;;43.57;12.10;;;6.20;99.90;;;;;;4990944;28;20295;-76
2020/12/16 01:57:35;;;;;;;38.33;9.73;;;6.10;99.90;;;;;;4991445;28;20208;-81
2020/12/16 02:00:05;;;;;;;59.87;13.10;;;6.00;99.90;;;;;;4990864;28;20237;-76
2020/12/16 02:02:35;;;;;;;50.17;12.80;;;6.00;99.90;;;;;;4991356;28;20268;-75
2020/12/16 02:05:03;;;;;;;45.63;11.87;;;6.00;99.90;;;;;;4991025;28;20211;-72
2020/12/16 02:07:32;;;;;;;33.63;10.50;;;6.00;99.90;;;;;;4991106;28;20245;-73
2020/12/16 02:09:58;;;;;;;22.20;10.30;;;6.00;99.90;;;;;;4990745;28;20213;-79
2020/12/16 02:12:30;;;;;;;22.87;10.17;;;5.90;99.90;;;;;;4990967;28;20237;-71
2020/12/16 02:14:56;;;;;;;25.57;10.83;;;5.90;99.90;;;;;;4991141;28;20672;-73
2020/12/16 02:17:23;;;;;;;16.77;8.50;;;5.80;99.90;;;;;;4991524;28;20208;-73
2020/12/16 02:19:55;;;;;;;33.73;10.63;;;5.80;99.90;;;;;;4991390;28;20245;-73
2020/12/16 02:22:22;;;;;;;25.20;10.10;;;5.80;99.90;;;;;;4991260;28;20242;-71
2020/12/16 02:24:57;;;;;;;29.63;10.50;;;5.90;99.90;;;;;;4991876;28;20264;-83
2020/12/16 02:27:24;;;;;;;23.87;8.63;;;5.90;99.90;;;;;;4990944;28;20213;-71
2020/12/16 02:29:50;;;;;;;27.07;11.00;;;6.00;99.90;;;;;;4991353;28;20241;-83
2020/12/16 02:32:18;;;;;;;31.87;12.23;;;5.90;99.90;;;;;;4990827;28;20251;-80
2020/12/16 02:34:45;;;;;;;31.03;11.87;;;5.80;99.90;;;;;;4991073;28;20223;-74
2020/12/16 02:37:11;;;;;;;23.40;10.17;;;5.80;99.90;;;;;;4990910;28;20244;-77
2020/12/16 02:39:38;;;;;;;35.67;12.50;;;5.80;99.90;;;;;;4990930;28;20248;-79
2020/12/16 02:42:07;;;;;;;33.53;10.90;;;5.90;99.90;;;;;;4990738;28;20209;-73
2020/12/16 02:44:33;;;;;;;22.97;11.63;;;5.90;99.90;;;;;;4990777;28;21654;-79
2020/12/16 02:47:01;;;;;;;36.60;11.13;;;5.90;99.90;;;;;;4990792;28;20258;-78
2020/12/16 02:49:28;;;;;;;42.07;11.23;;;5.80;99.90;;;;;;4990813;28;20237;-73
2020/12/16 02:51:55;;;;;;;20.53;8.67;;;5.90;99.90;;;;;;4990894;28;20209;-73
2020/12/16 02:54:22;;;;;;;22.73;9.43;;;5.80;99.90;;;;;;4991258;28;20266;-75
2020/12/16 02:56:49;;;;;;;27.43;10.87;;;5.80;99.90;;;;;;4990500;28;20244;-76
2020/12/16 02:59:17;;;;;;;29.20;9.50;;;5.70;99.90;;;;;;4990408;28;20693;-76
2020/12/16 03:01:47;;;;;;;23.17;9.17;;;5.80;99.90;;;;;;4990504;28;20237;-76
2020/12/16 03:04:13;;;;;;;30.00;10.27;;;5.80;99.90;;;;;;4992167;28;20236;-76
2020/12/16 03:06:40;;;;;;;32.87;11.70;;;5.70;99.90;;;;;;4994503;28;20205;-77
2020/12/16 03:09:06;;;;;;;26.10;10.90;;;5.80;99.90;;;;;;4993826;28;20292;-74
2020/12/16 03:11:33;;;;;;;44.00;13.93;;;5.80;99.90;;;;;;4994108;28;20205;-77
2020/12/16 03:13:59;;;;;;;21.97;8.23;;;5.80;99.90;;;;;;4993748;28;20692;-80
2020/12/16 03:16:26;;;;;;;33.43;10.70;;;5.80;99.90;;;;;;4994007;28;20247;-74
2020/12/16 03:18:53;;;;;;;13.90;7.43;;;5.80;99.90;;;;;;4994021;28;20209;-74
2020/12/16 03:21:23;;;;;;;22.50;9.53;;;5.90;99.90;;;;;;4991946;28;20643;-74
2020/12/16 03:23:51;;;;;;;17.63;9.40;;;5.80;99.90;;;;;;4994067;28;20239;-74
2020/12/16 03:26:17;;;;;;;13.43;8.30;;;5.70;99.90;;;;;;4993897;28;20208;-78
2020/12/16 03:28:44;;;;;;;15.67;9.23;;;5.90;99.90;;;;;;4993672;28;20248;-73
2020/12/16 03:31:11;;;;;;;14.37;8.90;;;5.80;99.90;;;;;;4993722;28;20209;-74
2020/12/16 03:33:39;;;;;;;10.77;9.03;;;5.70;99.90;;;;;;4993816;28;20209;-78
2020/12/16 03:36:06;;;;;;;7.97;7.13;;;5.70;99.90;;;;;;4993634;28;20619;-74
2020/12/16 03:38:33;;;;;;;11.23;8.40;;;5.70;99.90;;;;;;4993675;28;20209;-73
2020/12/16 03:40:59;;;;;;;10.63;8.40;;;5.60;99.90;;;;;;4992973;28;20209;-73
2020/12/16 03:43:25;;;;;;;10.33;7.87;;;5.60;99.90;;;;;;4993417;28;20232;-73
2020/12/16 03:45:52;;;;;;;10.07;8.33;;;5.60;99.90;;;;;;4993453;28;20280;-73
2020/12/16 03:48:19;;;;;;;11.80;8.83;;;5.50;99.90;;;;;;4993766;28;20205;-73
2020/12/16 03:50:46;;;;;;;12.20;8.03;;;5.50;99.90;;;;;;4993341;28;20217;-73
2020/12/16 03:53:13;;;;;;;8.87;7.47;;;5.40;99.90;;;;;;4993079;28;20209;-73
2020/12/16 03:55:39;;;;;;;8.43;7.07;;;5.40;99.90;;;;;;4993283;28;20216;-77
2020/12/16 03:58:06;;;;;;;9.27;7.10;;;5.40;99.90;;;;;;4992542;28;20676;-73
2020/12/16 04:00:32;;;;;;;9.30;7.97;;;5.30;99.90;;;;;;4993478;28;20204;-73
2020/12/16 04:02:59;;;;;;;7.93;7.10;;;5.30;99.90;;;;;;4992763;28;20272;-73
2020/12/16 04:05:25;;;;;;;8.60;6.97;;;5.30;99.90;;;;;;4993232;28;20247;-73
2020/12/16 04:07:52;;;;;;;9.17;7.07;;;5.40;99.90;;;;;;4992910;28;20553;-74
2020/12/16 04:10:19;;;;;;;7.97;6.57;;;5.30;99.90;;;;;;4993206;28;20251;-76
2020/12/16 04:12:45;;;;;;;8.63;7.20;;;5.30;99.90;;;;;;4992995;28;20295;-74
2020/12/16 04:15:12;;;;;;;9.67;7.53;;;5.20;99.90;;;;;;4991727;28;20770;-77
2020/12/16 04:17:38;;;;;;;9.47;7.83;;;5.20;99.90;;;;;;4993206;28;20209;-77
2020/12/16 04:20:05;;;;;;;10.20;7.27;;;5.20;99.90;;;;;;4992273;28;20205;-75
2020/12/16 04:22:32;;;;;;;8.83;6.90;;;5.10;99.90;;;;;;4992724;28;20224;-77
2020/12/16 04:24:59;;;;;;;7.77;6.37;;;5.10;99.90;;;;;;4992119;28;20216;-73
2020/12/16 04:27:26;;;;;;;9.37;6.97;;;5.10;99.90;;;;;;4992995;28;20239;-76
2020/12/16 04:29:52;;;;;;;7.90;6.17;;;5.10;99.90;;;;;;4992669;28;20248;-74
2020/12/16 04:32:18;;;;;;;8.50;5.60;;;5.00;99.90;;;;;;4992848;28;20201;-74
2020/12/16 04:34:45;;;;;;;7.40;5.97;;;5.00;99.90;;;;;;4992917;28;20240;-74
2020/12/16 04:37:11;;;;;;;8.63;6.73;;;5.10;99.90;;;;;;4992094;28;20626;-74
2020/12/16 04:39:38;;;;;;;6.23;5.47;;;5.10;99.90;;;;;;4992534;28;20243;-76
2020/12/16 04:42:05;;;;;;;7.30;5.47;;;5.00;99.90;;;;;;4992323;28;20209;-77
2020/12/16 04:44:31;;;;;;;7.57;6.47;;;5.10;99.90;;;;;;4992630;28;20323;-78
2020/12/16 04:47:00;;;;;;;8.43;7.47;;;5.00;99.90;;;;;;4992122;28;20334;-77
2020/12/16 04:49:26;;;;;;;10.90;8.50;;;5.00;99.90;;;;;;4992646;28;20310;-77
2020/12/16 04:51:53;;;;;;;14.53;12.17;;;5.00;99.90;;;;;;4992524;28;20209;-72
2020/12/16 04:54:20;;;;;;;21.77;18.20;;;5.00;99.90;;;;;;4992052;28;20267;-77
2020/12/16 04:56:46;;;;;;;21.37;19.00;;;5.00;99.90;;;;;;4992508;28;20209;-73
2020/12/16 04:59:14;;;;;;;23.23;20.20;;;5.00;99.90;;;;;;4991804;28;20263;-77
2020/12/16 05:01:42;;;;;;;34.60;29.83;;;4.90;99.90;;;;;;4992442;28;20244;-77
2020/12/16 05:04:09;;;;;;;37.40;31.93;;;4.90;99.90;;;;;;4991526;28;20228;-73
2020/12/16 05:06:38;;;;;;;35.93;32.03;;;4.90;99.90;;;;;;4991941;28;20205;-73
2020/12/16 05:09:09;;;;;;;32.30;28.80;;;5.00;99.90;;;;;;4991586;28;20212;-74
2020/12/16 05:11:37;;;;;;;40.80;33.93;;;4.90;99.90;;;;;;4992148;28;20559;-73
2020/12/16 05:14:08;;;;;;;30.77;27.53;;;4.90;99.90;;;;;;4991867;28;20680;-77
2020/12/16 05:17:00;;;;;;;25.17;21.90;;;4.90;99.90;;;;;;4991822;28;20636;-74
2020/12/16 05:19:35;;;;;;;27.70;23.97;;;4.90;99.90;;;;;;4991761;28;20227;-77
2020/12/16 05:22:18;;;;;;;25.13;20.23;;;5.00;99.90;;;;;;4991082;28;20624;-76
2020/12/16 05:24:46;;;;;;;26.30;21.43;;;4.90;99.90;;;;;;4991410;28;20754;-76
2020/12/16 05:27:21;;;;;;;20.37;18.17;;;4.80;99.90;;;;;;4991137;28;20248;-77
2020/12/16 05:29:51;;;;;;;22.60;15.90;;;4.90;99.90;;;;;;4991699;28;20259;-73
2020/12/16 05:32:23;;;;;;;17.77;15.77;;;5.00;99.90;;;;;;4991566;28;20205;-73
2020/12/16 05:34:50;;;;;;;23.27;19.80;;;5.00;99.90;;;;;;4991796;28;20248;-75
2020/12/16 05:37:28;;;;;;;22.00;19.70;;;4.90;99.90;;;;;;4991381;28;20259;-73
2020/12/16 05:39:56;;;;;;;19.87;17.73;;;4.80;99.90;;;;;;4991379;28;20200;-76
2020/12/16 05:42:24;;;;;;;12.33;11.03;;;4.90;99.90;;;;;;4991241;28;20684;-73
2020/12/16 05:44:51;;;;;;;23.03;17.77;;;4.90;99.90;;;;;;4991918;28;20235;-75
2020/12/16 05:47:19;;;;;;;17.70;14.87;;;4.90;99.90;;;;;;4991017;28;20243;-74
2020/12/16 05:49:45;;;;;;;22.00;16.90;;;4.80;99.90;;;;;;4991196;28;20715;-75
2020/12/16 05:52:12;;;;;;;15.20;13.43;;;4.80;99.90;;;;;;4991054;28;20251;-77
2020/12/16 05:54:38;;;;;;;15.60;12.43;;;4.80;99.90;;;;;;4991256;28;20220;-74
2020/12/16 05:57:14;;;;;;;12.80;11.60;;;4.80;99.90;;;;;;4990954;28;20213;-74
2020/12/16 05:59:41;;;;;;;10.70;9.47;;;4.80;99.90;;;;;;4991175;28;20247;-74
2020/12/16 06:02:08;;;;;;;10.20;8.90;;;4.90;99.90;;;;;;4991050;28;20299;-78
2020/12/16 06:04:36;;;;;;;7.30;6.60;;;4.80;99.90;;;;;;4991112;28;20291;-71
2020/12/16 06:07:04;;;;;;;9.13;6.30;;;4.90;99.90;;;;;;4990333;28;20368;-73
2020/12/16 06:09:32;;;;;;;4.60;4.07;;;4.90;99.90;;;;;;4990833;28;20574;-73
2020/12/16 06:12:06;;;;;;;4.43;4.03;;;5.00;99.90;;;;;;4990713;28;20212;-74
2020/12/16 06:14:35;;;;;;;5.20;4.70;;;5.00;99.90;;;;;;4990919;28;20255;-75
2020/12/16 06:17:10;;;;;;;5.77;3.97;;;5.10;99.90;;;;;;4990779;28;20790;-73
2020/12/16 06:19:43;;;;;;;4.40;4.00;;;5.10;99.90;;;;;;4990567;28;20692;-73
2020/12/16 06:22:11;;;;;;;5.00;4.50;;;4.90;99.90;;;;;;4990752;28;20260;-75
2020/12/16 06:24:42;;;;;;;5.70;5.07;;;4.90;99.90;;;;;;4991029;28;20256;-73
2020/12/16 06:27:10;;;;;;;5.93;4.73;;;4.70;99.90;;;;;;4990747;28;20213;-75
2020/12/16 06:29:39;;;;;;;6.23;5.63;;;4.80;99.90;;;;;;4990824;28;20243;-73
2020/12/16 06:32:10;;;;;;;9.57;8.57;;;4.80;99.90;;;;;;4990322;28;20209;-73
2020/12/16 06:34:39;;;;;;;9.37;8.00;;;4.90;99.90;;;;;;4990890;28;20215;-74
2020/12/16 06:37:05;;;;;;;8.57;6.67;;;5.00;99.90;;;;;;4990301;28;20337;-74
2020/12/16 06:39:40;;;;;;;6.73;6.03;;;4.90;99.90;;;;;;4992762;28;20578;-77
2020/12/16 06:42:06;;;;;;;7.97;6.50;;;4.90;99.90;;;;;;4994129;28;20208;-74
2020/12/16 06:44:32;;;;;;;8.57;7.67;;;4.90;99.90;;;;;;4994752;28;20235;-75
2020/12/16 06:46:59;;;;;;;9.07;8.10;;;4.90;99.90;;;;;;4993871;28;20672;-76
2020/12/16 06:49:38;;;;;;;9.33;7.70;;;5.30;99.90;;;;;;4994910;28;20205;-74
2020/12/16 06:52:08;;;;;;;12.37;9.00;;;5.20;99.90;;;;;;4994222;28;20201;-75
2020/12/16 06:54:44;;;;;;;13.63;12.23;;;5.10;99.90;;;;;;4994382;28;20743;-75
2020/12/16 06:57:19;;;;;;;13.90;12.63;;;5.20;99.90;;;;;;4992762;28;20648;-74
2020/12/16 06:59:51;;;;;;;13.07;11.70;;;5.20;99.90;;;;;;4994043;28;20707;-74
2020/12/16 07:02:27;;;;;;;16.80;14.17;;;5.10;99.90;;;;;;4993926;28;20248;-74
2020/12/16 07:04:54;;;;;;;11.23;9.83;;;5.20;99.90;;;;;;4994399;28;20220;-75
2020/12/16 07:07:48;;;;;;;10.37;9.37;;;5.40;99.90;;;;;;4994129;28;20209;-74
2020/12/16 07:10:41;;;;;;;11.83;9.80;;;5.60;99.90;;;;;;4993788;28;20205;-75
2020/12/16 07:13:16;;;;;;;9.53;8.37;;;5.60;99.90;;;;;;4993730;28;20700;-75
2020/12/16 07:15:45;;;;;;;10.17;8.07;;;5.80;99.90;;;;;;4990172;28;20248;-74
2020/12/16 07:18:48;;;;;;;6.53;5.87;;;5.80;99.90;;;;;;4988460;28;20718;-75
2020/12/16 07:21:29;;;;;;;8.93;6.13;;;6.90;99.90;;;;;;4946767;29;20218;-74
2020/12/16 07:24:05;;;;;;;6.33;4.63;;;7.30;99.90;;;;;;4947799;29;20332;-74
2020/12/16 07:26:34;;;;;;;7.07;4.97;;;7.50;99.90;;;;;;4978450;28;20232;-72
2020/12/16 07:29:17;;;;;;;6.90;4.97;;;7.40;99.90;;;;;;4993168;28;20241;-74
2020/12/16 07:31:54;;;;;;;5.53;4.90;;;7.40;99.90;;;;;;4993097;28;20209;-72
2020/12/16 07:34:21;;;;;;;7.00;5.00;;;7.30;99.90;;;;;;4993878;28;20304;-74
2020/12/16 07:36:54;;;;;;;6.77;5.07;;;7.50;99.90;;;;;;4993476;28;20236;-72
2020/12/16 07:39:21;;;;;;;5.77;4.80;;;7.70;99.90;;;;;;4993451;28;20632;-73
2020/12/16 07:41:49;;;;;;;6.37;4.87;;;7.80;99.90;;;;;;4993838;28;20209;-78
2020/12/16 07:44:15;;;;;;;4.70;4.20;;;8.30;99.90;;;;;;4993186;28;20668;-75
2020/12/16 07:46:42;;;;;;;5.67;4.07;;;8.20;99.90;;;;;;4993174;28;20703;-71
2020/12/16 07:49:11;;;;;;;7.43;4.57;;;8.40;99.90;;;;;;4992810;28;20209;-74
2020/12/16 07:51:38;;;;;;;5.37;4.27;;;8.60;99.90;;;;;;4993176;28;20219;-75
2020/12/16 07:54:04;;;;;;;4.40;3.97;;;8.50;99.90;;;;;;4992566;28;20229;-77
2020/12/16 07:56:32;;;;;;;4.83;4.33;;;8.50;99.90;;;;;;4993587;28;20204;-76
2020/12/16 07:59:09;;;;;;;5.27;3.87;;;8.70;99.90;;;;;;4992894;28;20212;-76
2020/12/16 08:01:35;;;;;;;4.67;4.13;;;8.80;99.90;;;;;;4992964;28;20209;-76
2020/12/16 08:04:02;;;;;;;4.13;3.73;;;8.90;99.90;;;;;;4988089;28;20273;-72
2020/12/16 08:06:29;;;;;;;3.90;3.50;;;9.10;99.90;;;;;;4993082;28;20684;-77
2020/12/16 08:08:55;;;;;;;4.20;3.80;;;9.20;99.90;;;;;;4992738;28;20244;-72
2020/12/16 08:11:25;;;;;;;4.27;3.87;;;9.10;99.90;;;;;;4993169;28;20292;-72
2020/12/16 08:14:02;;;;;;;3.70;3.07;;;9.30;99.90;;;;;;4993433;28;20650;-72
2020/12/16 08:16:28;;;;;;;8.60;3.40;;;9.60;99.90;;;;;;4979790;28;20573;-74
2020/12/16 08:18:55;;;;;;;3.57;3.20;;;9.90;99.90;;;;;;4992769;28;20697;-76
2020/12/16 08:21:23;;;;;;;3.33;3.03;;;10.00;99.90;;;;;;4992649;28;20582;-74
2020/12/16 08:23:51;;;;;;;5.28;3.63;;;10.20;99.90;;;;;;4992137;28;20461;-79
2020/12/16 08:26:18;;;;;;;3.73;3.33;;;10.60;99.90;;;;;;4989818;28;20303;-72
2020/12/16 08:28:45;;;;;;;2.97;2.60;;;11.20;99.90;;;;;;4989739;28;20205;-82
2020/12/16 08:31:16;;;;;;;3.87;2.50;;;11.30;99.90;;;;;;4991194;28;20708;-80
2020/12/16 08:33:44;;;;;;;2.47;2.27;;;11.30;99.90;;;;;;4992379;28;20205;-73
2020/12/16 08:36:15;;;;;;;4.07;2.37;;;11.00;99.90;;;;;;4992441;28;20247;-74
2020/12/16 08:38:44;;;;;;;2.27;2.07;;;11.20;99.90;;;;;;4992413;28;20271;-74
2020/12/16 08:41:12;;;;;;;5.17;3.10;;;11.70;99.90;;;;;;4991007;28;20739;-75
2020/12/16 08:43:42;;;;;;;3.43;1.97;;;11.90;99.90;;;;;;4984475;28;20284;-75
2020/12/16 08:46:12;;;;;;;2.73;2.20;;;13.00;99.90;;;;;;4989636;28;20292;-76
2020/12/16 08:48:42;;;;;;;2.20;2.00;;;12.70;99.90;;;;;;4989147;28;20260;-76
2020/12/16 08:51:10;;;;;;;3.53;2.20;;;11.70;99.90;;;;;;4990083;28;20208;-80
2020/12/16 08:53:57;;;;;;;3.10;2.00;;;11.80;99.90;;;;;;4989929;28;20216;-77
2020/12/16 08:56:28;;;;;;;3.50;1.80;;;12.50;99.90;;;;;;4987049;28;20232;-81
2020/12/16 08:59:07;;;;;;;1.30;1.20;;;13.30;99.90;;;;;;4992027;28;20288;-83
2020/12/16 09:01:35;;;;;;;3.83;1.83;;;14.00;99.90;;;;;;4981064;28;20201;-82
2020/12/16 09:04:03;;;;;;;3.43;1.87;;;14.00;99.90;;;;;;4991645;28;20326;-81
2020/12/16 09:06:29;;;;;;;5.28;2.35;;;13.00;99.90;;;;;;4991806;28;20681;-81
2020/12/16 09:08:56;;;;;;;5.28;2.67;;;13.10;99.90;;;;;;4991385;28;20216;-78
2020/12/16 09:11:23;;;;;;;1.63;1.52;;;13.60;99.90;;;;;;4990114;28;20204;-77
2020/12/16 09:13:51;;;;;;;1.63;1.42;;;13.60;99.90;;;;;;4991983;28;20248;-78
2020/12/16 09:16:22;;;;;;;1.83;1.60;;;15.60;99.90;;;;;;4989815;28;20676;-79
2020/12/16 09:18:49;;;;;;;3.25;1.90;;;14.60;99.90;;;;;;4990604;28;20693;-80
2020/12/16 09:21:17;;;;;;;2.13;1.52;;;13.80;99.90;;;;;;4991060;28;20469;-78
2020/12/16 09:23:45;;;;;;;3.63;2.15;;;14.00;99.90;;;;;;4990015;28;20236;-79
2020/12/16 09:26:12;;;;;;;6.57;2.30;;;14.30;99.90;;;;;;4982390;28;20205;-80
2020/12/16 09:28:40;;;;;;;3.75;2.15;;;14.30;99.90;;;;;;4987962;28;20205;-78
2020/12/16 09:31:14;;;;;;;2.72;1.52;;;14.40;99.90;;;;;;4990016;28;20211;-79
2020/12/16 09:33:40;;;;;;;3.78;1.73;;;14.40;99.90;;;;;;4991028;28;20215;-79
2020/12/16 09:36:07;;;;;;;2.65;1.58;;;14.70;99.90;;;;;;4991164;28;20212;-78
2020/12/16 09:38:35;;;;;;;1.92;1.70;;;14.20;99.90;;;;;;4991177;28;20652;-79
2020/12/16 09:41:01;;;;;;;4.60;1.77;;;15.00;99.90;;;;;;4990469;28;20685;-78
2020/12/16 09:43:41;;;;;;;2.25;1.27;;;14.70;99.90;;;;;;4991113;28;20295;-78
2020/12/16 09:46:18;;;;;;;2.17;1.42;;;15.20;99.90;;;;;;4991126;28;20212;-79
2020/12/16 09:48:46;;;;;;;2.33;1.38;;;15.60;99.90;;;;;;4990962;28;20228;-78
2020/12/16 09:51:17;;;;;;;1.42;1.13;;;15.90;99.90;;;;;;4990315;28;20224;-78
2020/12/16 09:53:46;;;;;;;2.42;1.10;;;15.30;99.90;;;;;;4990730;28;20237;-78
2020/12/16 09:56:23;;;;;;;7.13;1.40;;;14.80;99.90;;;;;;4990455;28;20247;-77
2020/12/16 09:58:49;;;;;;;2.63;0.98;;;15.00;99.90;;;;;;4987182;28;20236;-79
2020/12/16 10:01:16;;;;;;;2.15;1.10;;;14.80;99.90;;;;;;4990767;28;20592;-80
2020/12/16 10:03:43;;;;;;;3.15;1.13;;;16.10;99.90;;;;;;4987965;28;20264;-80
2020/12/16 10:06:13;;;;;;;2.47;0.98;;;17.30;99.90;;;;;;4989094;28;20205;-78
2020/12/16 10:08:39;;;;;;;1.60;1.10;;;17.90;99.90;;;;;;4990303;28;20213;-80
2020/12/16 10:11:10;;;;;;;2.00;1.08;;;17.90;99.90;;;;;;4990210;28;20233;-81
2020/12/16 10:13:36;;;;;;;2.70;1.30;;;16.20;99.90;;;;;;4992952;28;20703;-80
2020/12/16 10:16:03;;;;;;;1.42;1.33;;;17.10;99.90;;;;;;4994362;28;20209;-80
2020/12/16 10:18:30;;;;;;;2.35;1.08;;;16.00;99.90;;;;;;4994987;28;20216;-79
2020/12/16 10:20:56;;;;;;;2.60;1.63;;;16.80;99.90;;;;;;4994515;28;20216;-78
2020/12/16 10:23:23;;;;;;;1.77;1.50;;;17.00;99.90;;;;;;4990805;28;20719;-77
2020/12/16 10:25:49;;;;;;;5.07;1.77;;;17.00;99.90;;;;;;4995267;28;20213;-79
2020/12/16 10:28:18;;;;;;;4.32;1.35;;;17.50;99.90;;;;;;4990787;28;20599;-79
2020/12/16 10:30:45;;;;;;;3.80;1.80;;;16.30;99.90;;;;;;4995020;28;20299;-79
2020/12/16 10:33:11;;;;;;;4.15;2.65;;;16.60;99.90;;;;;;4994105;28;20407;-78
2020/12/16 10:35:38;;;;;;;4.10;1.45;;;15.20;99.90;;;;;;4994810;28;20212;-76
2020/12/16 10:38:04;;;;;;;4.60;1.77;;;17.40;99.90;;;;;;4994113;28;20667;-80
2020/12/16 10:40:31;;;;;;;8.23;1.88;;;18.60;99.90;;;;;;4994066;28;20250;-78
2020/12/16 10:42:58;;;;;;;2.15;1.52;;;18.70;99.90;;;;;;4994385;28;20212;-78
2020/12/16 10:45:27;;;;;;;2.80;1.55;;;14.70;99.90;;;;;;4993953;28;20235;-78
2020/12/16 10:47:57;;;;;;;4.25;2.08;;;13.90;99.90;;;;;;4994435;28;20591;-78
2020/12/16 10:50:24;;;;;;;3.03;1.60;;;13.80;99.90;;;;;;4993044;28;20206;-77
2020/12/16 10:52:51;;;;;;;3.47;2.03;;;13.70;99.90;;;;;;4994237;28;20215;-78
2020/12/16 10:55:17;;;;;;;3.80;2.20;;;13.50;99.90;;;;;;4994045;28;20209;-78
2020/12/16 10:57:45;;;;;;;3.20;2.30;;;13.50;99.90;;;;;;4993437;28;20209;-79
2020/12/16 11:00:11;;;;;;;7.15;2.95;;;13.50;99.90;;;;;;4993772;28;20680;-78
2020/12/16 11:02:39;;;;;;;3.45;2.50;;;13.60;99.90;;;;;;4994170;28;20220;-79
2020/12/16 11:05:05;;;;;;;4.90;2.78;;;13.70;99.90;;;;;;4992494;28;20713;-73
2020/12/16 11:07:32;;;;;;;4.32;3.13;;;13.60;99.90;;;;;;4992597;28;20321;-72
2020/12/16 11:09:58;;;;;;;4.18;2.30;;;13.70;99.90;;;;;;4993111;28;20228;-73
2020/12/16 11:12:25;;;;;;;4.43;1.70;;;13.70;99.90;;;;;;4994039;28;20240;-79
2020/12/16 11:14:51;;;;;;;4.85;3.33;;;13.60;99.90;;;;;;4994430;28;20277;-73
2020/12/16 11:17:18;;;;;;;6.72;2.83;;;13.70;99.90;;;;;;4993921;28;20209;-79
2020/12/16 11:19:45;;;;;;;5.93;2.97;;;13.80;99.90;;;;;;4993271;28;20213;-77
2020/12/16 11:22:12;;;;;;;5.85;2.75;;;14.00;99.90;;;;;;4993347;28;20632;-75
2020/12/16 11:24:39;;;;;;;3.58;2.15;;;13.90;99.90;;;;;;4993026;28;20224;-78
2020/12/16 11:27:05;;;;;;;6.75;2.55;;;13.80;99.90;;;;;;4993110;28;20637;-76
2020/12/16 11:29:32;;;;;;;5.80;2.60;;;13.90;99.90;;;;;;4993613;28;20244;-76
2020/12/16 11:32:01;;;;;;;7.32;2.78;;;14.00;99.90;;;;;;4993072;28;20208;-76
2020/12/16 11:34:28;;;;;;;4.13;2.03;;;14.10;99.90;;;;;;4993976;28;20227;-78
2020/12/16 11:36:57;;;;;;;6.82;2.83;;;14.20;99.90;;;;;;4993321;28;20216;-76
2020/12/16 11:39:25;;;;;;;3.92;2.63;;;14.30;99.90;;;;;;4993428;28;20292;-76
2020/12/16 11:41:53;;;;;;;5.65;2.15;;;14.40;99.90;;;;;;4993715;28;20665;-76
2020/12/16 11:44:20;;;;;;;3.00;2.30;;;14.50;99.90;;;;;;4993069;28;20770;-77
2020/12/16 11:46:48;;;;;;;4.00;2.72;;;14.40;99.90;;;;;;4993492;28;20681;-76
2020/12/16 11:49:15;;;;;;;5.57;2.63;;;14.50;99.90;;;;;;4987771;28;20669;-76
2020/12/16 11:51:42;;;;;;;6.43;2.92;;;14.60;99.90;;;;;;4993420;28;20213;-80
2020/12/16 11:54:09;;;;;;;14.98;3.83;;;14.60;99.90;;;;;;4993289;28;20237;-82
2020/12/16 11:56:37;;;;;;;4.32;2.35;;;14.60;99.90;;;;;;4994243;28;20201;-80
2020/12/16 11:59:04;;;;;;;6.70;2.80;;;14.60;99.90;;;;;;4987570;28;20237;-81
2020/12/16 12:01:31;;;;;;;3.05;2.58;;;14.60;99.90;;;;;;4989324;28;20212;-80
2020/12/16 12:03:58;;;;;;;6.28;2.65;;;14.60;99.90;;;;;;4992458;28;20240;-78
2020/12/16 12:06:25;;;;;;;6.20;2.55;;;14.70;99.90;;;;;;4993057;28;20236;-78
2020/12/16 12:08:52;;;;;;;5.32;2.55;;;14.70;99.90;;;;;;4993073;28;20209;-78
2020/12/16 12:11:20;;;;;;;4.40;2.08;;;14.60;99.90;;;;;;4991683;28;20259;-78
2020/12/16 12:13:47;;;;;;;3.92;2.30;;;14.60;99.90;;;;;;4992065;28;20213;-81
2020/12/16 12:16:16;;;;;;;2.88;2.25;;;14.20;99.90;;;;;;4992251;28;20589;-80
2020/12/16 12:18:44;;;;;;;5.25;2.50;;;14.10;99.90;;;;;;4993011;28;20213;-79
2020/12/16 12:21:12;;;;;;;2.92;2.03;;;14.10;99.90;;;;;;4992197;28;20672;-79
2020/12/16 12:23:39;;;;;;;3.20;2.47;;;14.40;99.90;;;;;;4990898;28;20724;-76
2020/12/16 12:26:06;;;;;;;2.85;2.33;;;14.40;99.90;;;;;;4988123;28;20209;-76
2020/12/16 12:28:33;;;;;;;4.93;1.88;;;14.40;99.90;;;;;;4990277;28;20201;-77
2020/12/16 12:31:00;;;;;;;5.22;2.40;;;14.50;99.90;;;;;;4992455;28;20255;-77
2020/12/16 12:33:26;;;;;;;4.65;2.75;;;14.50;99.90;;;;;;4991419;28;20271;-77
2020/12/16 12:35:54;;;;;;;5.40;2.45;;;14.50;99.90;;;;;;4987447;28;20244;-76
2020/12/16 12:38:20;;;;;;;8.23;3.20;;;14.30;99.90;;;;;;4983720;28;20201;-78
2020/12/16 12:40:48;;;;;;;6.07;2.83;;;14.30;99.90;;;;;;4991193;28;20743;-78
2020/12/16 12:43:16;;;;;;;3.05;2.65;;;14.40;99.90;;;;;;4991489;28;20708;-77
2020/12/16 12:45:44;;;;;;;5.43;2.38;;;14.50;99.90;;;;;;4992098;28;20224;-77
2020/12/16 12:48:10;;;;;;;3.35;2.30;;;14.50;99.90;;;;;;4992021;28;20227;-77
2020/12/16 12:50:36;;;;;;;5.18;2.83;;;14.50;99.90;;;;;;4992288;28;20251;-77
2020/12/16 12:53:03;;;;;;;5.82;3.55;;;14.60;99.90;;;;;;4992205;28;20213;-78